AAL109 EGLL-KBOS
Flight info
| Callsign | AAL109 |
|---|---|
| Flight time | 6h 58m |
| Altitude | 36000 |
| Route | ULTIB T420 TNT UL28 PENIL M144 BAGSO DCT RINUS DCT MALOT/M082F360 NATD RIKAL/N0484F360 N572A TOPPS DCT AJJAY OOSHN5 |
| Aircraft | B77W/H-SDE1E2E3FGHIJ2J3J4J5M1RWXY/LB1D1 |
Departure
| Time | 2026-05-04 12:15 |
|---|---|
| Airport | London Heathrow Airport (EGLL) |
Arrival
| Time | 2026-05-04 19:13 |
|---|---|
| Airport | Boston Logan International Airport (KBOS) |
| Time | Latitude | Longitude | Altitude | Speed | Heading |
|---|---|---|---|---|---|
| 2026-05-04 11:50 | 51.47437 | -0.46399 | 96 ft | 0 kts | 179° |
| 2026-05-04 12:01 | 51.47454 | -0.46399 | 97 ft | 4 kts | 184° |
| 2026-05-04 12:01 | 51.47480 | -0.46395 | 97 ft | 4 kts | 175° |
| 2026-05-04 12:02 | 51.47515 | -0.46486 | 97 ft | 0 kts | 90° |
| 2026-05-04 12:05 | 51.47515 | -0.46467 | 97 ft | 8 kts | 90° |
| 2026-05-04 12:05 | 51.47516 | -0.46327 | 97 ft | 13 kts | 90° |
| 2026-05-04 12:06 | 51.47516 | -0.46182 | 97 ft | 15 kts | 90° |
| 2026-05-04 12:06 | 51.47515 | -0.45999 | 97 ft | 16 kts | 90° |
| 2026-05-04 12:06 | 51.47522 | -0.45824 | 97 ft | 15 kts | 79° |
| 2026-05-04 12:06 | 51.47527 | -0.45660 | 97 ft | 14 kts | 90° |
| 2026-05-04 12:07 | 51.47527 | -0.45506 | 97 ft | 13 kts | 90° |
| 2026-05-04 12:07 | 51.47527 | -0.45362 | 97 ft | 13 kts | 89° |
| 2026-05-04 12:07 | 51.47529 | -0.45222 | 97 ft | 12 kts | 88° |
| 2026-05-04 12:07 | 51.47532 | -0.45089 | 97 ft | 12 kts | 87° |
| 2026-05-04 12:08 | 51.47533 | -0.44960 | 97 ft | 11 kts | 90° |
| 2026-05-04 12:08 | 51.47533 | -0.44829 | 97 ft | 15 kts | 89° |
| 2026-05-04 12:08 | 51.47512 | -0.44636 | 97 ft | 18 kts | 108° |
| 2026-05-04 12:08 | 51.47503 | -0.44446 | 97 ft | 17 kts | 89° |
| 2026-05-04 12:09 | 51.47504 | -0.44266 | 97 ft | 16 kts | 89° |
| 2026-05-04 12:09 | 51.47504 | -0.44101 | 97 ft | 11 kts | 104° |
| 2026-05-04 12:09 | 51.47502 | -0.43974 | 97 ft | 17 kts | 86° |
| 2026-05-04 12:09 | 51.47490 | -0.43781 | 97 ft | 15 kts | 133° |
| 2026-05-04 12:10 | 51.47401 | -0.43750 | 97 ft | 14 kts | 179° |
| 2026-05-04 12:10 | 51.47304 | -0.43753 | 97 ft | 14 kts | 183° |
| 2026-05-04 12:10 | 51.47212 | -0.43759 | 97 ft | 13 kts | 181° |
| 2026-05-04 12:10 | 51.47125 | -0.43760 | 97 ft | 12 kts | 180° |
| 2026-05-04 12:11 | 51.47039 | -0.43756 | 97 ft | 12 kts | 177° |
| 2026-05-04 12:11 | 51.46953 | -0.43749 | 97 ft | 12 kts | 179° |
| 2026-05-04 12:11 | 51.46870 | -0.43747 | 97 ft | 12 kts | 181° |
| 2026-05-04 12:11 | 51.46794 | -0.43773 | 97 ft | 5 kts | 180° |
| 2026-05-04 12:12 | 51.46771 | -0.43753 | 97 ft | 2 kts | 124° |
| 2026-05-04 12:12 | 51.46767 | -0.43734 | 97 ft | 2 kts | 96° |
| 2026-05-04 12:12 | 51.46770 | -0.43681 | 97 ft | 8 kts | 82° |
| 2026-05-04 12:12 | 51.46777 | -0.43570 | 97 ft | 10 kts | 85° |
| 2026-05-04 12:13 | 51.46767 | -0.43463 | 97 ft | 10 kts | 117° |
| 2026-05-04 12:14 | 51.46484 | -0.48276 | 266 ft | 226 kts | 270° |
| 2026-05-04 12:15 | 51.46522 | -0.50798 | 1192 ft | 226 kts | 276° |
| 2026-05-04 12:15 | 51.46946 | -0.53278 | 1901 ft | 238 kts | 293° |
| 2026-05-04 12:15 | 51.47889 | -0.55511 | 2459 ft | 246 kts | 313° |
| 2026-05-04 12:15 | 51.49057 | -0.57622 | 2950 ft | 264 kts | 309° |
| 2026-05-04 12:16 | 51.50014 | -0.60199 | 3642 ft | 272 kts | 299° |
| 2026-05-04 12:16 | 51.50787 | -0.62936 | 4644 ft | 269 kts | 293° |
| 2026-05-04 12:16 | 51.51418 | -0.65802 | 5400 ft | 273 kts | 291° |
| 2026-05-04 12:16 | 51.52376 | -0.68422 | 5926 ft | 275 kts | 311° |
| 2026-05-04 12:17 | 51.53931 | -0.70134 | 6378 ft | 273 kts | 339° |
| 2026-05-04 12:17 | 51.55797 | -0.70535 | 7114 ft | 271 kts | 5° |
| 2026-05-04 12:17 | 51.57603 | -0.69796 | 7934 ft | 268 kts | 22° |
| 2026-05-04 12:17 | 51.59365 | -0.68723 | 8564 ft | 276 kts | 19° |
| 2026-05-04 12:18 | 51.61288 | -0.68350 | 9249 ft | 282 kts | 2° |
| 2026-05-04 12:18 | 51.63241 | -0.68680 | 10066 ft | 282 kts | 354° |
| 2026-05-04 12:18 | 51.65226 | -0.69059 | 10645 ft | 293 kts | 355° |
| 2026-05-04 12:18 | 51.67309 | -0.69442 | 11062 ft | 310 kts | 354° |
| 2026-05-04 12:19 | 51.69511 | -0.69764 | 11473 ft | 327 kts | 356° |
| 2026-05-04 12:19 | 51.71845 | -0.69984 | 11857 ft | 345 kts | 358° |
| 2026-05-04 12:19 | 51.74298 | -0.70151 | 12346 ft | 360 kts | 358° |
| 2026-05-04 12:19 | 51.76839 | -0.70320 | 12936 ft | 371 kts | 358° |
| 2026-05-04 12:20 | 51.79446 | -0.70515 | 13614 ft | 379 kts | 358° |
| 2026-05-04 12:20 | 51.82097 | -0.70727 | 14354 ft | 384 kts | 357° |
| 2026-05-04 12:20 | 51.84777 | -0.70949 | 15181 ft | 387 kts | 357° |
| 2026-05-04 12:20 | 51.87484 | -0.71180 | 15893 ft | 392 kts | 357° |
| 2026-05-04 12:21 | 51.90219 | -0.71417 | 16617 ft | 396 kts | 356° |
| 2026-05-04 12:21 | 51.92984 | -0.71658 | 17353 ft | 399 kts | 356° |
| 2026-05-04 12:21 | 51.95768 | -0.71902 | 18061 ft | 403 kts | 356° |
| 2026-05-04 12:21 | 51.98580 | -0.72148 | 18728 ft | 407 kts | 356° |
| 2026-05-04 12:22 | 52.01417 | -0.72398 | 19419 ft | 408 kts | 356° |
| 2026-05-04 12:22 | 52.04255 | -0.72647 | 20114 ft | 411 kts | 356° |
| 2026-05-04 12:22 | 52.07128 | -0.72900 | 20696 ft | 416 kts | 356° |
| 2026-05-04 12:22 | 52.10016 | -0.73392 | 21214 ft | 419 kts | 349° |
| 2026-05-04 12:23 | 52.12836 | -0.74628 | 21785 ft | 421 kts | 340° |
| 2026-05-04 12:23 | 52.15603 | -0.76259 | 22297 ft | 425 kts | 338° |
| 2026-05-04 12:23 | 52.18268 | -0.78364 | 22824 ft | 428 kts | 330° |
| 2026-05-04 12:23 | 52.20761 | -0.81053 | 23360 ft | 431 kts | 325° |
| 2026-05-04 12:24 | 52.23256 | -0.83796 | 23840 ft | 435 kts | 327° |
| 2026-05-04 12:24 | 52.25841 | -0.86394 | 24347 ft | 438 kts | 329° |
| 2026-05-04 12:24 | 52.28441 | -0.88900 | 24867 ft | 440 kts | 329° |
| 2026-05-04 12:24 | 52.31080 | -0.91483 | 25344 ft | 443 kts | 329° |
| 2026-05-04 12:25 | 52.33725 | -0.94106 | 25832 ft | 446 kts | 329° |
| 2026-05-04 12:25 | 52.36371 | -0.96747 | 26277 ft | 449 kts | 329° |
| 2026-05-04 12:25 | 52.39054 | -0.99431 | 26743 ft | 452 kts | 329° |
| 2026-05-04 12:25 | 52.41738 | -1.02119 | 27202 ft | 454 kts | 329° |
| 2026-05-04 12:26 | 52.44439 | -1.04826 | 27628 ft | 456 kts | 330° |
| 2026-05-04 12:26 | 52.47152 | -1.07543 | 28053 ft | 458 kts | 330° |
| 2026-05-04 12:26 | 52.49881 | -1.10289 | 28424 ft | 462 kts | 330° |
| 2026-05-04 12:26 | 52.52620 | -1.13065 | 28813 ft | 464 kts | 330° |
| 2026-05-04 12:27 | 52.55376 | -1.15863 | 29164 ft | 467 kts | 330° |
| 2026-05-04 12:27 | 52.58144 | -1.18671 | 29556 ft | 468 kts | 330° |
| 2026-05-04 12:27 | 52.60931 | -1.21473 | 29877 ft | 470 kts | 330° |
| 2026-05-04 12:27 | 52.63712 | -1.24296 | 30314 ft | 470 kts | 330° |
| 2026-05-04 12:28 | 52.66490 | -1.27122 | 30724 ft | 470 kts | 330° |
| 2026-05-04 12:28 | 52.68328 | -1.28992 | 31004 ft | 469 kts | 330° |
| 2026-05-04 12:28 | 52.71106 | -1.31826 | 31400 ft | 469 kts | 330° |
| 2026-05-04 12:28 | 52.73879 | -1.34648 | 31770 ft | 469 kts | 331° |
| 2026-05-04 12:29 | 52.76649 | -1.37474 | 32153 ft | 468 kts | 331° |
| 2026-05-04 12:29 | 52.79424 | -1.40290 | 32518 ft | 467 kts | 332° |
| 2026-05-04 12:29 | 52.82201 | -1.43080 | 32832 ft | 468 kts | 332° |
| 2026-05-04 12:29 | 52.84972 | -1.45901 | 33177 ft | 467 kts | 332° |
| 2026-05-04 12:30 | 52.87732 | -1.48733 | 33497 ft | 467 kts | 332° |
| 2026-05-04 12:30 | 52.90492 | -1.51576 | 33812 ft | 467 kts | 332° |
| 2026-05-04 12:30 | 52.93246 | -1.54420 | 34122 ft | 467 kts | 332° |
| 2026-05-04 12:30 | 52.96000 | -1.57266 | 34350 ft | 468 kts | 332° |
| 2026-05-04 12:31 | 53.01531 | -1.62990 | 34374 ft | 468 kts | 332° |
| 2026-05-04 12:31 | 53.07046 | -1.68702 | 34374 ft | 466 kts | 333° |
| 2026-05-04 12:32 | 53.15306 | -1.77290 | 34374 ft | 467 kts | 333° |
| 2026-05-04 12:33 | 53.20794 | -1.83119 | 34372 ft | 469 kts | 329° |
| 2026-05-04 12:33 | 53.25429 | -1.90920 | 34375 ft | 482 kts | 310° |
| 2026-05-04 12:34 | 53.28534 | -2.00960 | 34379 ft | 492 kts | 299° |
| 2026-05-04 12:34 | 53.31324 | -2.11475 | 34378 ft | 496 kts | 300° |
| 2026-05-04 12:35 | 53.34382 | -2.21736 | 34378 ft | 496 kts | 301° |
| 2026-05-04 12:35 | 53.37038 | -2.32476 | 34376 ft | 498 kts | 293° |
| 2026-05-04 12:36 | 53.39088 | -2.43513 | 34356 ft | 500 kts | 292° |
| 2026-05-04 12:36 | 53.41195 | -2.54637 | 34356 ft | 502 kts | 292° |
| 2026-05-04 12:37 | 53.43279 | -2.65801 | 34356 ft | 501 kts | 291° |
| 2026-05-04 12:37 | 53.45352 | -2.76965 | 34356 ft | 501 kts | 291° |
| 2026-05-04 12:38 | 53.47424 | -2.88124 | 34357 ft | 501 kts | 291° |
| 2026-05-04 12:38 | 53.49518 | -2.99290 | 34358 ft | 502 kts | 292° |
| 2026-05-04 12:39 | 53.51589 | -3.10509 | 34357 ft | 503 kts | 291° |
| 2026-05-04 12:39 | 53.53607 | -3.21774 | 34357 ft | 504 kts | 291° |
| 2026-05-04 12:40 | 53.55622 | -3.33075 | 34359 ft | 505 kts | 291° |
| 2026-05-04 12:40 | 53.57644 | -3.44414 | 34359 ft | 507 kts | 291° |
| 2026-05-04 12:41 | 53.59701 | -3.55776 | 34359 ft | 508 kts | 291° |
| 2026-05-04 12:41 | 53.61564 | -3.67210 | 34357 ft | 512 kts | 285° |
| 2026-05-04 12:42 | 53.62251 | -3.79183 | 34362 ft | 517 kts | 275° |
| 2026-05-04 12:42 | 53.62644 | -3.91307 | 34360 ft | 519 kts | 277° |
| 2026-05-04 12:43 | 53.63172 | -4.03447 | 34354 ft | 520 kts | 277° |
| 2026-05-04 12:43 | 53.63627 | -4.15598 | 34354 ft | 519 kts | 277° |
| 2026-05-04 12:44 | 53.64080 | -4.27752 | 34354 ft | 519 kts | 276° |
| 2026-05-04 12:44 | 53.64517 | -4.39890 | 34354 ft | 519 kts | 276° |
| 2026-05-04 12:45 | 53.64956 | -4.52028 | 34354 ft | 518 kts | 277° |
| 2026-05-04 12:45 | 53.65375 | -4.64142 | 34353 ft | 517 kts | 276° |
| 2026-05-04 12:46 | 53.65756 | -4.76251 | 34354 ft | 517 kts | 276° |
| 2026-05-04 12:46 | 53.66145 | -4.88338 | 34354 ft | 516 kts | 276° |
| 2026-05-04 12:47 | 53.66559 | -5.00422 | 34353 ft | 516 kts | 275° |
| 2026-05-04 12:47 | 53.66931 | -5.12435 | 34353 ft | 517 kts | 275° |
| 2026-05-04 12:48 | 53.67318 | -5.24538 | 34354 ft | 517 kts | 275° |
| 2026-05-04 12:48 | 53.67648 | -5.36671 | 34353 ft | 518 kts | 275° |
| 2026-05-04 12:49 | 53.67970 | -5.48813 | 34352 ft | 519 kts | 275° |
| 2026-05-04 12:49 | 53.68062 | -5.61021 | 34352 ft | 521 kts | 271° |
| 2026-05-04 12:50 | 53.67831 | -5.73256 | 34352 ft | 523 kts | 270° |
| 2026-05-04 12:50 | 53.67620 | -5.85532 | 34351 ft | 524 kts | 270° |
| 2026-05-04 12:51 | 53.67437 | -5.97810 | 34351 ft | 524 kts | 270° |
| 2026-05-04 12:51 | 53.67259 | -6.10010 | 34351 ft | 524 kts | 270° |
| 2026-05-04 12:52 | 53.67181 | -6.22293 | 34351 ft | 524 kts | 271° |
| 2026-05-04 12:52 | 53.67040 | -6.34568 | 34350 ft | 523 kts | 270° |
| 2026-05-04 12:53 | 53.66861 | -6.46816 | 34351 ft | 522 kts | 270° |
| 2026-05-04 12:53 | 53.66669 | -6.58816 | 34351 ft | 521 kts | 270° |
| 2026-05-04 12:54 | 53.66459 | -6.71029 | 34349 ft | 520 kts | 270° |
| 2026-05-04 12:54 | 53.66237 | -6.83209 | 34350 ft | 520 kts | 269° |
| 2026-05-04 12:55 | 53.66003 | -6.95386 | 34350 ft | 519 kts | 269° |
| 2026-05-04 12:55 | 53.65757 | -7.07557 | 34349 ft | 519 kts | 269° |
| 2026-05-04 12:56 | 53.65551 | -7.19710 | 34348 ft | 519 kts | 270° |
| 2026-05-04 12:56 | 53.65290 | -7.31870 | 34350 ft | 520 kts | 268° |
| 2026-05-04 12:57 | 53.64980 | -7.43971 | 34348 ft | 521 kts | 268° |
| 2026-05-04 12:57 | 53.64661 | -7.56181 | 34349 ft | 521 kts | 268° |
| 2026-05-04 12:58 | 53.64338 | -7.68398 | 34349 ft | 522 kts | 268° |
| 2026-05-04 12:58 | 53.63717 | -7.80604 | 34348 ft | 523 kts | 264° |
| 2026-05-04 12:59 | 53.62887 | -7.92801 | 34349 ft | 524 kts | 264° |
| 2026-05-04 12:59 | 53.62085 | -8.04998 | 34349 ft | 524 kts | 264° |
| 2026-05-04 13:00 | 53.61298 | -8.17195 | 34348 ft | 524 kts | 264° |
| 2026-05-04 13:00 | 53.60543 | -8.29382 | 34348 ft | 523 kts | 265° |
| 2026-05-04 13:01 | 53.59874 | -8.41566 | 34348 ft | 522 kts | 265° |
| 2026-05-04 13:01 | 53.59142 | -8.53714 | 34347 ft | 521 kts | 264° |
| 2026-05-04 13:02 | 53.58376 | -8.65835 | 34345 ft | 520 kts | 264° |
| 2026-05-04 13:02 | 53.57593 | -8.77920 | 34344 ft | 519 kts | 264° |
| 2026-05-04 13:03 | 53.56797 | -8.89979 | 34343 ft | 518 kts | 263° |
| 2026-05-04 13:03 | 53.55995 | -9.01943 | 34344 ft | 518 kts | 263° |
| 2026-05-04 13:04 | 53.55174 | -9.13981 | 34344 ft | 518 kts | 263° |
| 2026-05-04 13:04 | 53.54341 | -9.26022 | 34496 ft | 520 kts | 263° |
| 2026-05-04 13:04 | 53.53920 | -9.32046 | 34894 ft | 517 kts | 263° |
| 2026-05-04 13:05 | 53.53498 | -9.38044 | 35248 ft | 515 kts | 263° |
| 2026-05-04 13:05 | 53.53074 | -9.44010 | 35608 ft | 514 kts | 263° |
| 2026-05-04 13:05 | 53.52646 | -9.49999 | 35674 ft | 519 kts | 263° |
| 2026-05-04 13:06 | 53.51768 | -9.62148 | 35738 ft | 529 kts | 263° |
| 2026-05-04 13:06 | 53.50861 | -9.74505 | 35853 ft | 536 kts | 263° |
| 2026-05-04 13:06 | 53.50403 | -9.80689 | 36205 ft | 532 kts | 263° |
| 2026-05-04 13:07 | 53.49943 | -9.86848 | 36331 ft | 531 kts | 263° |
| 2026-05-04 13:07 | 53.49020 | -9.99084 | 36339 ft | 526 kts | 263° |
| 2026-05-04 13:08 | 53.48092 | -10.11216 | 36338 ft | 523 kts | 263° |
| 2026-05-04 13:08 | 53.47153 | -10.23326 | 36338 ft | 523 kts | 262° |
| 2026-05-04 13:09 | 53.46202 | -10.35427 | 36336 ft | 523 kts | 262° |
| 2026-05-04 13:09 | 53.45238 | -10.47529 | 36335 ft | 523 kts | 262° |
| 2026-05-04 13:10 | 53.44263 | -10.59617 | 36334 ft | 523 kts | 262° |
| 2026-05-04 13:10 | 53.43277 | -10.71685 | 36333 ft | 522 kts | 262° |
| 2026-05-04 13:11 | 53.42278 | -10.83751 | 36331 ft | 522 kts | 262° |
| 2026-05-04 13:11 | 53.41268 | -10.95800 | 36331 ft | 522 kts | 262° |
| 2026-05-04 13:12 | 53.40247 | -11.07831 | 36329 ft | 521 kts | 262° |
| 2026-05-04 13:12 | 53.39221 | -11.19777 | 36327 ft | 522 kts | 262° |
| 2026-05-04 13:13 | 53.38195 | -11.31574 | 36326 ft | 522 kts | 261° |
| 2026-05-04 13:13 | 53.37138 | -11.43592 | 36325 ft | 522 kts | 261° |
| 2026-05-04 13:14 | 53.36067 | -11.55624 | 36323 ft | 523 kts | 261° |
| 2026-05-04 13:14 | 53.34983 | -11.67660 | 36321 ft | 523 kts | 261° |
| 2026-05-04 13:15 | 53.33886 | -11.79694 | 36320 ft | 523 kts | 261° |
| 2026-05-04 13:15 | 53.32778 | -11.91716 | 36318 ft | 523 kts | 261° |
| 2026-05-04 13:16 | 53.31658 | -12.03731 | 36316 ft | 523 kts | 261° |
| 2026-05-04 13:16 | 53.30526 | -12.15741 | 36314 ft | 523 kts | 261° |
| 2026-05-04 13:17 | 53.29380 | -12.27753 | 36312 ft | 523 kts | 261° |
| 2026-05-04 13:17 | 53.28224 | -12.39748 | 36310 ft | 523 kts | 260° |
| 2026-05-04 13:18 | 53.27255 | -12.49706 | 36309 ft | 523 kts | 260° |
| 2026-05-04 13:18 | 53.26076 | -12.61691 | 36306 ft | 522 kts | 260° |
| 2026-05-04 13:19 | 53.24888 | -12.73651 | 36304 ft | 522 kts | 260° |
| 2026-05-04 13:19 | 53.23688 | -12.85593 | 36303 ft | 522 kts | 260° |
| 2026-05-04 13:20 | 53.22476 | -12.97538 | 36300 ft | 521 kts | 260° |
| 2026-05-04 13:20 | 53.21253 | -13.09460 | 36298 ft | 522 kts | 260° |
| 2026-05-04 13:21 | 53.20017 | -13.21390 | 36297 ft | 522 kts | 260° |
| 2026-05-04 13:21 | 53.18768 | -13.33324 | 36294 ft | 522 kts | 259° |
| 2026-05-04 13:22 | 53.17508 | -13.45243 | 36291 ft | 522 kts | 259° |
| 2026-05-04 13:22 | 53.16235 | -13.57165 | 36290 ft | 522 kts | 259° |
| 2026-05-04 13:23 | 53.14965 | -13.68944 | 36288 ft | 522 kts | 259° |
| 2026-05-04 13:23 | 53.13667 | -13.80863 | 36285 ft | 522 kts | 259° |
| 2026-05-04 13:24 | 53.12359 | -13.92756 | 36282 ft | 523 kts | 259° |
| 2026-05-04 13:24 | 53.11039 | -14.04653 | 36281 ft | 523 kts | 259° |
| 2026-05-04 13:25 | 53.09037 | -14.22474 | 36277 ft | 522 kts | 259° |
| 2026-05-04 13:25 | 53.07694 | -14.34288 | 36275 ft | 523 kts | 259° |
| 2026-05-04 13:26 | 53.06332 | -14.46155 | 36272 ft | 522 kts | 258° |
| 2026-05-04 13:26 | 53.05021 | -14.58032 | 36270 ft | 522 kts | 259° |
| 2026-05-04 13:27 | 53.03627 | -14.69875 | 36268 ft | 522 kts | 258° |
| 2026-05-04 13:27 | 53.02204 | -14.81709 | 36265 ft | 523 kts | 258° |
| 2026-05-04 13:28 | 53.00807 | -14.93548 | 36255 ft | 522 kts | 261° |
| 2026-05-04 13:28 | 53.00835 | -15.05560 | 36254 ft | 522 kts | 281° |
| 2026-05-04 13:29 | 53.03123 | -15.16952 | 36261 ft | 520 kts | 295° |
| 2026-05-04 13:29 | 53.05995 | -15.27983 | 36239 ft | 520 kts | 295° |
| 2026-05-04 13:30 | 53.08649 | -15.39150 | 36227 ft | 519 kts | 292° |
| 2026-05-04 13:30 | 53.11131 | -15.50432 | 36224 ft | 520 kts | 291° |
| 2026-05-04 13:31 | 53.13650 | -15.61745 | 36221 ft | 521 kts | 292° |
| 2026-05-04 13:31 | 53.16172 | -15.72973 | 36218 ft | 521 kts | 292° |
| 2026-05-04 13:32 | 53.18676 | -15.84380 | 36214 ft | 521 kts | 292° |
| 2026-05-04 13:32 | 53.21127 | -15.95673 | 36211 ft | 521 kts | 291° |
| 2026-05-04 13:33 | 53.23579 | -16.07060 | 36207 ft | 522 kts | 291° |
| 2026-05-04 13:33 | 53.26021 | -16.18467 | 36144 ft | 521 kts | 291° |
| 2026-05-04 13:34 | 53.28449 | -16.29875 | 36136 ft | 521 kts | 291° |
| 2026-05-04 13:34 | 53.30867 | -16.41298 | 36132 ft | 522 kts | 291° |
| 2026-05-04 13:35 | 53.34479 | -16.58487 | 36126 ft | 522 kts | 291° |
| 2026-05-04 13:36 | 53.36871 | -16.69951 | 36121 ft | 522 kts | 291° |
| 2026-05-04 13:36 | 53.39253 | -16.81432 | 36116 ft | 521 kts | 291° |
| 2026-05-04 13:37 | 53.41620 | -16.92910 | 36112 ft | 521 kts | 291° |
| 2026-05-04 13:37 | 53.43973 | -17.04382 | 36108 ft | 520 kts | 290° |
| 2026-05-04 13:38 | 53.46313 | -17.15860 | 36102 ft | 520 kts | 290° |
| 2026-05-04 13:38 | 53.48640 | -17.27340 | 36098 ft | 519 kts | 290° |
| 2026-05-04 13:39 | 53.50952 | -17.38812 | 36093 ft | 518 kts | 290° |
| 2026-05-04 13:39 | 53.53248 | -17.50274 | 36089 ft | 518 kts | 290° |
| 2026-05-04 13:40 | 53.55534 | -17.61746 | 36085 ft | 517 kts | 290° |
| 2026-05-04 13:40 | 53.57805 | -17.73216 | 36080 ft | 516 kts | 290° |
| 2026-05-04 13:41 | 53.60062 | -17.84685 | 36076 ft | 515 kts | 290° |
| 2026-05-04 13:41 | 53.62289 | -17.96063 | 36071 ft | 515 kts | 290° |
| 2026-05-04 13:42 | 53.65631 | -18.13269 | 36064 ft | 515 kts | 290° |
| 2026-05-04 13:42 | 53.67843 | -18.24742 | 36060 ft | 514 kts | 290° |
| 2026-05-04 13:43 | 53.70042 | -18.36222 | 36055 ft | 514 kts | 289° |
| 2026-05-04 13:43 | 53.72230 | -18.47708 | 36050 ft | 514 kts | 289° |
| 2026-05-04 13:44 | 53.74410 | -18.59220 | 36046 ft | 514 kts | 289° |
| 2026-05-04 13:44 | 53.76575 | -18.70730 | 36042 ft | 513 kts | 289° |
| 2026-05-04 13:45 | 53.78714 | -18.82165 | 36037 ft | 513 kts | 289° |
| 2026-05-04 13:45 | 53.80849 | -18.93650 | 36032 ft | 512 kts | 289° |
| 2026-05-04 13:46 | 53.82972 | -19.05140 | 36028 ft | 510 kts | 289° |
| 2026-05-04 13:46 | 53.85074 | -19.16593 | 36024 ft | 509 kts | 289° |
| 2026-05-04 13:47 | 53.87160 | -19.28019 | 36020 ft | 507 kts | 289° |
| 2026-05-04 13:47 | 53.89228 | -19.39424 | 36015 ft | 505 kts | 289° |
| 2026-05-04 13:48 | 53.91293 | -19.50782 | 36010 ft | 503 kts | 289° |
| 2026-05-04 13:48 | 53.93373 | -19.62104 | 36007 ft | 501 kts | 288° |
| 2026-05-04 13:49 | 53.95363 | -19.73425 | 36002 ft | 500 kts | 288° |
| 2026-05-04 13:49 | 53.97338 | -19.84735 | 35997 ft | 499 kts | 288° |
| 2026-05-04 13:50 | 53.99302 | -19.96043 | 35983 ft | 499 kts | 287° |
| 2026-05-04 13:50 | 54.00524 | -20.07677 | 35889 ft | 501 kts | 277° |
| 2026-05-04 13:51 | 54.01021 | -20.19517 | 35741 ft | 503 kts | 274° |
| 2026-05-04 13:51 | 54.01302 | -20.31413 | 35612 ft | 503 kts | 274° |
| 2026-05-04 13:52 | 54.01837 | -20.49246 | 35513 ft | 503 kts | 274° |
| 2026-05-04 13:53 | 54.02226 | -20.61052 | 35513 ft | 503 kts | 274° |
| 2026-05-04 13:53 | 54.02734 | -20.72915 | 35512 ft | 502 kts | 274° |
| 2026-05-04 13:54 | 54.03405 | -20.90651 | 35512 ft | 500 kts | 274° |
| 2026-05-04 13:55 | 54.04004 | -21.08326 | 35512 ft | 498 kts | 273° |
| 2026-05-04 13:55 | 54.04568 | -21.25970 | 35511 ft | 497 kts | 273° |
| 2026-05-04 13:56 | 54.04927 | -21.37714 | 35511 ft | 497 kts | 272° |
| 2026-05-04 13:57 | 54.05444 | -21.55321 | 35511 ft | 497 kts | 272° |
| 2026-05-04 13:58 | 54.06092 | -21.78734 | 35510 ft | 497 kts | 272° |
| 2026-05-04 13:58 | 54.06549 | -21.96365 | 35481 ft | 498 kts | 272° |
| 2026-05-04 13:59 | 54.06840 | -22.08138 | 35458 ft | 498 kts | 272° |
| 2026-05-04 14:00 | 54.07255 | -22.25790 | 35457 ft | 497 kts | 272° |
| 2026-05-04 14:00 | 54.07643 | -22.43436 | 35456 ft | 498 kts | 272° |
| 2026-05-04 14:01 | 54.07888 | -22.55214 | 35455 ft | 497 kts | 271° |
| 2026-05-04 14:02 | 54.08231 | -22.72729 | 35455 ft | 489 kts | 271° |
| 2026-05-04 14:02 | 54.08443 | -22.84266 | 35455 ft | 486 kts | 271° |
| 2026-05-04 14:03 | 54.08644 | -22.95766 | 35455 ft | 485 kts | 270° |
| 2026-05-04 14:03 | 54.08832 | -23.07231 | 35455 ft | 483 kts | 270° |
| 2026-05-04 14:04 | 54.09094 | -23.24330 | 35455 ft | 480 kts | 270° |
| 2026-05-04 14:04 | 54.09254 | -23.35659 | 35455 ft | 478 kts | 270° |
| 2026-05-04 14:05 | 54.09473 | -23.52600 | 35454 ft | 476 kts | 270° |
| 2026-05-04 14:06 | 54.09605 | -23.63865 | 35413 ft | 476 kts | 270° |
| 2026-05-04 14:06 | 54.09707 | -23.73225 | 35403 ft | 475 kts | 270° |
| 2026-05-04 14:07 | 54.09820 | -23.84490 | 35401 ft | 475 kts | 270° |
| 2026-05-04 14:07 | 54.09923 | -23.95756 | 35400 ft | 476 kts | 270° |
| 2026-05-04 14:08 | 54.10015 | -24.07021 | 35399 ft | 475 kts | 270° |
| 2026-05-04 14:08 | 54.10096 | -24.18294 | 35399 ft | 475 kts | 270° |
| 2026-05-04 14:09 | 54.10199 | -24.35172 | 35397 ft | 474 kts | 269° |
| 2026-05-04 14:10 | 54.10278 | -24.52012 | 35396 ft | 473 kts | 269° |
| 2026-05-04 14:10 | 54.10317 | -24.63137 | 35395 ft | 472 kts | 269° |
| 2026-05-04 14:11 | 54.10346 | -24.74302 | 35395 ft | 470 kts | 268° |
| 2026-05-04 14:11 | 54.10370 | -24.90966 | 35393 ft | 468 kts | 268° |
| 2026-05-04 14:12 | 54.10373 | -25.02029 | 35392 ft | 466 kts | 268° |
| 2026-05-04 14:13 | 54.10359 | -25.18564 | 35391 ft | 464 kts | 267° |
| 2026-05-04 14:13 | 54.10337 | -25.29547 | 35389 ft | 463 kts | 267° |
| 2026-05-04 14:14 | 54.10305 | -25.40503 | 35389 ft | 462 kts | 267° |
| 2026-05-04 14:14 | 54.10239 | -25.56898 | 35372 ft | 461 kts | 267° |
| 2026-05-04 14:15 | 54.10117 | -25.78692 | 35359 ft | 460 kts | 267° |
| 2026-05-04 14:16 | 54.09999 | -25.95035 | 35358 ft | 460 kts | 267° |
| 2026-05-04 14:17 | 54.09860 | -26.11285 | 35357 ft | 460 kts | 266° |
| 2026-05-04 14:18 | 54.09698 | -26.27626 | 35356 ft | 459 kts | 266° |
| 2026-05-04 14:19 | 54.09449 | -26.49363 | 35354 ft | 458 kts | 266° |
| 2026-05-04 14:19 | 54.09310 | -26.60191 | 35354 ft | 457 kts | 265° |
| 2026-05-04 14:20 | 54.09161 | -26.71017 | 35353 ft | 457 kts | 265° |
| 2026-05-04 14:20 | 54.09003 | -26.81812 | 35352 ft | 455 kts | 265° |
| 2026-05-04 14:21 | 54.08749 | -26.97953 | 35351 ft | 454 kts | 264° |
| 2026-05-04 14:21 | 54.08568 | -27.08684 | 35350 ft | 453 kts | 264° |
| 2026-05-04 14:22 | 54.08378 | -27.19410 | 35412 ft | 452 kts | 264° |
| 2026-05-04 14:22 | 54.08178 | -27.30120 | 35466 ft | 452 kts | 264° |
| 2026-05-04 14:23 | 54.07861 | -27.46164 | 35469 ft | 451 kts | 264° |
| 2026-05-04 14:24 | 54.07640 | -27.56775 | 35470 ft | 451 kts | 264° |
| 2026-05-04 14:24 | 54.07422 | -27.66799 | 35471 ft | 452 kts | 263° |
| 2026-05-04 14:25 | 54.07174 | -27.77763 | 35472 ft | 452 kts | 263° |
| 2026-05-04 14:25 | 54.06794 | -27.93792 | 35473 ft | 452 kts | 263° |
| 2026-05-04 14:26 | 54.06529 | -28.04471 | 35474 ft | 452 kts | 263° |
| 2026-05-04 14:26 | 54.06254 | -28.15151 | 35474 ft | 452 kts | 263° |
| 2026-05-04 14:27 | 54.05971 | -28.25824 | 35476 ft | 451 kts | 263° |
| 2026-05-04 14:27 | 54.05678 | -28.36481 | 35477 ft | 450 kts | 263° |
| 2026-05-04 14:28 | 54.05376 | -28.47115 | 35477 ft | 449 kts | 263° |
| 2026-05-04 14:28 | 54.05066 | -28.57709 | 35478 ft | 447 kts | 262° |
| 2026-05-04 14:29 | 54.04422 | -28.78779 | 35481 ft | 444 kts | 262° |
| 2026-05-04 14:30 | 54.04090 | -28.89174 | 35481 ft | 442 kts | 262° |
| 2026-05-04 14:31 | 54.03576 | -29.04777 | 35483 ft | 439 kts | 262° |
| 2026-05-04 14:32 | 54.02865 | -29.25417 | 35485 ft | 435 kts | 262° |
| 2026-05-04 14:32 | 54.02498 | -29.35680 | 35486 ft | 434 kts | 262° |
| 2026-05-04 14:33 | 54.02126 | -29.45920 | 35487 ft | 433 kts | 262° |
| 2026-05-04 14:33 | 54.01806 | -29.56154 | 35488 ft | 432 kts | 262° |
| 2026-05-04 14:34 | 54.01409 | -29.66333 | 35489 ft | 431 kts | 262° |
| 2026-05-04 14:34 | 54.00986 | -29.76512 | 35490 ft | 431 kts | 261° |
| 2026-05-04 14:35 | 54.00560 | -29.86670 | 35492 ft | 431 kts | 262° |
| 2026-05-04 14:35 | 54.00134 | -29.96833 | 35493 ft | 431 kts | 262° |
| 2026-05-04 14:36 | 54.00113 | -30.07048 | 35493 ft | 434 kts | 267° |
| 2026-05-04 14:36 | 54.00525 | -30.17300 | 35495 ft | 436 kts | 269° |
| 2026-05-04 14:37 | 54.00992 | -30.27581 | 35496 ft | 436 kts | 269° |
| 2026-05-04 14:37 | 54.01396 | -30.37857 | 35496 ft | 435 kts | 268° |
| 2026-05-04 14:38 | 54.01766 | -30.48119 | 35497 ft | 434 kts | 268° |
| 2026-05-04 14:38 | 54.02115 | -30.58335 | 35498 ft | 432 kts | 268° |
| 2026-05-04 14:39 | 54.02552 | -30.68540 | 35499 ft | 432 kts | 269° |
| 2026-05-04 14:39 | 54.02966 | -30.78651 | 35499 ft | 431 kts | 268° |
| 2026-05-04 14:40 | 54.03518 | -30.93872 | 35501 ft | 429 kts | 268° |
| 2026-05-04 14:40 | 54.03861 | -31.03979 | 35503 ft | 427 kts | 268° |
| 2026-05-04 14:41 | 54.04192 | -31.14062 | 35503 ft | 426 kts | 268° |
| 2026-05-04 14:42 | 54.04820 | -31.34134 | 35505 ft | 423 kts | 268° |
| 2026-05-04 14:42 | 54.05120 | -31.44126 | 35507 ft | 423 kts | 268° |
| 2026-05-04 14:43 | 54.05411 | -31.54116 | 35507 ft | 422 kts | 268° |
| 2026-05-04 14:43 | 54.05694 | -31.64092 | 35508 ft | 422 kts | 268° |
| 2026-05-04 14:44 | 54.05967 | -31.74051 | 35510 ft | 421 kts | 268° |
| 2026-05-04 14:44 | 54.06232 | -31.83992 | 35510 ft | 420 kts | 269° |
| 2026-05-04 14:45 | 54.06489 | -31.93935 | 35512 ft | 421 kts | 268° |
| 2026-05-04 14:45 | 54.06736 | -32.03819 | 35513 ft | 421 kts | 268° |
| 2026-05-04 14:46 | 54.06976 | -32.13771 | 35514 ft | 421 kts | 268° |
| 2026-05-04 14:46 | 54.07209 | -32.23716 | 35515 ft | 420 kts | 268° |
| 2026-05-04 14:47 | 54.07433 | -32.33667 | 35517 ft | 420 kts | 268° |
| 2026-05-04 14:47 | 54.07648 | -32.43600 | 35518 ft | 419 kts | 268° |
| 2026-05-04 14:48 | 54.07855 | -32.53510 | 35519 ft | 418 kts | 268° |
| 2026-05-04 14:48 | 54.08053 | -32.63409 | 35470 ft | 418 kts | 268° |
| 2026-05-04 14:49 | 54.08243 | -32.73281 | 35462 ft | 416 kts | 267° |
| 2026-05-04 14:49 | 54.08424 | -32.83113 | 35463 ft | 415 kts | 267° |
| 2026-05-04 14:50 | 54.08596 | -32.92923 | 35465 ft | 414 kts | 267° |
| 2026-05-04 14:50 | 54.08761 | -33.02727 | 35467 ft | 414 kts | 267° |
| 2026-05-04 14:51 | 54.08917 | -33.12509 | 35469 ft | 412 kts | 266° |
| 2026-05-04 14:51 | 54.09064 | -33.22248 | 35471 ft | 411 kts | 266° |
| 2026-05-04 14:52 | 54.09204 | -33.31957 | 35472 ft | 409 kts | 266° |
| 2026-05-04 14:52 | 54.09335 | -33.41648 | 35473 ft | 409 kts | 266° |
| 2026-05-04 14:53 | 54.09458 | -33.51320 | 35475 ft | 408 kts | 266° |
| 2026-05-04 14:53 | 54.09573 | -33.60981 | 35477 ft | 407 kts | 266° |
| 2026-05-04 14:54 | 54.09680 | -33.70563 | 35479 ft | 407 kts | 266° |
| 2026-05-04 14:54 | 54.09779 | -33.80202 | 35481 ft | 407 kts | 266° |
| 2026-05-04 14:55 | 54.09872 | -33.89847 | 35483 ft | 407 kts | 266° |
| 2026-05-04 14:55 | 54.09956 | -33.99484 | 35485 ft | 407 kts | 266° |
| 2026-05-04 14:56 | 54.10020 | -34.07497 | 35486 ft | 407 kts | 266° |
| 2026-05-04 14:56 | 54.10090 | -34.17129 | 35488 ft | 407 kts | 266° |
| 2026-05-04 14:57 | 54.10152 | -34.26775 | 35490 ft | 407 kts | 266° |
| 2026-05-04 14:57 | 54.10207 | -34.36405 | 35492 ft | 406 kts | 266° |
| 2026-05-04 14:58 | 54.10254 | -34.46016 | 35494 ft | 406 kts | 265° |
| 2026-05-04 14:58 | 54.10293 | -34.55625 | 35496 ft | 405 kts | 266° |
| 2026-05-04 14:59 | 54.10325 | -34.65221 | 35498 ft | 404 kts | 265° |
| 2026-05-04 15:00 | 54.10357 | -34.79529 | 35502 ft | 403 kts | 265° |
| 2026-05-04 15:00 | 54.10369 | -34.89086 | 35504 ft | 403 kts | 265° |
| 2026-05-04 15:01 | 54.10374 | -35.03372 | 35507 ft | 401 kts | 265° |
| 2026-05-04 15:01 | 54.10368 | -35.12872 | 35509 ft | 401 kts | 265° |
| 2026-05-04 15:02 | 54.10354 | -35.22351 | 35511 ft | 399 kts | 265° |
| 2026-05-04 15:02 | 54.10333 | -35.31786 | 35513 ft | 398 kts | 265° |
| 2026-05-04 15:03 | 54.10304 | -35.41205 | 35516 ft | 397 kts | 265° |
| 2026-05-04 15:03 | 54.10268 | -35.50599 | 35518 ft | 396 kts | 265° |
| 2026-05-04 15:04 | 54.10226 | -35.59910 | 35521 ft | 395 kts | 265° |
| 2026-05-04 15:04 | 54.10176 | -35.69248 | 35523 ft | 394 kts | 265° |
| 2026-05-04 15:05 | 54.10119 | -35.78577 | 35525 ft | 394 kts | 265° |
| 2026-05-04 15:05 | 54.10054 | -35.87885 | 35527 ft | 392 kts | 265° |
| 2026-05-04 15:06 | 54.09983 | -35.97175 | 35530 ft | 392 kts | 265° |
| 2026-05-04 15:07 | 54.09863 | -36.11108 | 35534 ft | 392 kts | 265° |
| 2026-05-04 15:07 | 54.09774 | -36.20408 | 35536 ft | 392 kts | 265° |
| 2026-05-04 15:08 | 54.09677 | -36.29702 | 35539 ft | 392 kts | 264° |
| 2026-05-04 15:08 | 54.09573 | -36.39014 | 35555 ft | 394 kts | 264° |
| 2026-05-04 15:09 | 54.09462 | -36.48345 | 35658 ft | 394 kts | 264° |
| 2026-05-04 15:09 | 54.09344 | -36.57686 | 35788 ft | 395 kts | 264° |
| 2026-05-04 15:10 | 54.09152 | -36.71734 | 35831 ft | 395 kts | 264° |
| 2026-05-04 15:11 | 54.08944 | -36.85759 | 35834 ft | 395 kts | 264° |
| 2026-05-04 15:11 | 54.08796 | -36.95123 | 35836 ft | 396 kts | 264° |
| 2026-05-04 15:12 | 54.08641 | -37.04494 | 35838 ft | 395 kts | 264° |
| 2026-05-04 15:12 | 54.08479 | -37.13839 | 35837 ft | 395 kts | 264° |
| 2026-05-04 15:13 | 54.08309 | -37.23196 | 35742 ft | 395 kts | 264° |
| 2026-05-04 15:13 | 54.08133 | -37.32505 | 35726 ft | 392 kts | 264° |
| 2026-05-04 15:14 | 54.07952 | -37.41729 | 35727 ft | 392 kts | 264° |
| 2026-05-04 15:14 | 54.07762 | -37.50999 | 35729 ft | 391 kts | 263° |
| 2026-05-04 15:15 | 54.07566 | -37.60255 | 35731 ft | 391 kts | 263° |
| 2026-05-04 15:15 | 54.07363 | -37.69490 | 35732 ft | 390 kts | 263° |
| 2026-05-04 15:16 | 54.07047 | -37.83295 | 35734 ft | 388 kts | 263° |
| 2026-05-04 15:17 | 54.06715 | -37.97074 | 35738 ft | 388 kts | 263° |
| 2026-05-04 15:17 | 54.06367 | -38.10859 | 35740 ft | 388 kts | 263° |
| 2026-05-04 15:18 | 54.06126 | -38.20049 | 35742 ft | 389 kts | 263° |
| 2026-05-04 15:19 | 54.05752 | -38.33829 | 35745 ft | 389 kts | 263° |
| 2026-05-04 15:19 | 54.05364 | -38.47571 | 35748 ft | 390 kts | 263° |
| 2026-05-04 15:20 | 54.05093 | -38.56815 | 35750 ft | 391 kts | 263° |
| 2026-05-04 15:20 | 54.04816 | -38.66064 | 35752 ft | 391 kts | 263° |
| 2026-05-04 15:21 | 54.04531 | -38.75315 | 35754 ft | 392 kts | 263° |
| 2026-05-04 15:22 | 54.04089 | -38.89234 | 35756 ft | 393 kts | 263° |
| 2026-05-04 15:22 | 54.03631 | -39.03165 | 35760 ft | 393 kts | 263° |
| 2026-05-04 15:23 | 54.03317 | -39.12438 | 35761 ft | 392 kts | 262° |
| 2026-05-04 15:23 | 54.02996 | -39.21688 | 35763 ft | 391 kts | 262° |
| 2026-05-04 15:24 | 54.02338 | -39.40089 | 35767 ft | 390 kts | 262° |
| 2026-05-04 15:25 | 54.02029 | -39.49289 | 35769 ft | 389 kts | 263° |
| 2026-05-04 15:26 | 54.01543 | -39.63019 | 35773 ft | 387 kts | 262° |
| 2026-05-04 15:26 | 54.00979 | -39.76690 | 35776 ft | 386 kts | 262° |
| 2026-05-04 15:27 | 54.00407 | -39.90305 | 35779 ft | 385 kts | 262° |
| 2026-05-04 15:28 | 53.99816 | -40.03914 | 35782 ft | 385 kts | 261° |
| 2026-05-04 15:29 | 53.98996 | -40.17478 | 35785 ft | 384 kts | 261° |
| 2026-05-04 15:30 | 53.96992 | -40.49061 | 35794 ft | 385 kts | 260° |
| 2026-05-04 15:31 | 53.96147 | -40.62627 | 35796 ft | 385 kts | 261° |
| 2026-05-04 15:32 | 53.94841 | -40.85231 | 35803 ft | 385 kts | 261° |
| 2026-05-04 15:34 | 53.93399 | -41.07798 | 35808 ft | 385 kts | 260° |
| 2026-05-04 15:34 | 53.92504 | -41.21336 | 35812 ft | 385 kts | 260° |
| 2026-05-04 15:35 | 53.91593 | -41.34858 | 35816 ft | 384 kts | 260° |
| 2026-05-04 15:36 | 53.90668 | -41.48342 | 35819 ft | 383 kts | 260° |
| 2026-05-04 15:36 | 53.90044 | -41.57327 | 35822 ft | 384 kts | 259° |
| 2026-05-04 15:37 | 53.89412 | -41.66312 | 35824 ft | 384 kts | 259° |
| 2026-05-04 15:37 | 53.88777 | -41.75236 | 35827 ft | 384 kts | 259° |
| 2026-05-04 15:38 | 53.88132 | -41.84218 | 35830 ft | 384 kts | 259° |
| 2026-05-04 15:38 | 53.87481 | -41.93188 | 35832 ft | 383 kts | 259° |
| 2026-05-04 15:39 | 53.86824 | -42.02135 | 35835 ft | 383 kts | 259° |
| 2026-05-04 15:40 | 53.85826 | -42.15571 | 35838 ft | 383 kts | 259° |
| 2026-05-04 15:40 | 53.85152 | -42.24515 | 35841 ft | 383 kts | 259° |
| 2026-05-04 15:41 | 53.84471 | -42.33475 | 35844 ft | 384 kts | 259° |
| 2026-05-04 15:41 | 53.83782 | -42.42434 | 35847 ft | 383 kts | 259° |
| 2026-05-04 15:42 | 53.83089 | -42.51367 | 35849 ft | 383 kts | 259° |
| 2026-05-04 15:42 | 53.82388 | -42.60309 | 35852 ft | 383 kts | 259° |
| 2026-05-04 15:43 | 53.81684 | -42.69203 | 35855 ft | 384 kts | 259° |
| 2026-05-04 15:43 | 53.80968 | -42.78162 | 35858 ft | 384 kts | 259° |
| 2026-05-04 15:44 | 53.80245 | -42.87127 | 35860 ft | 384 kts | 259° |
| 2026-05-04 15:44 | 53.79639 | -42.94579 | 35862 ft | 385 kts | 258° |
| 2026-05-04 15:45 | 53.78902 | -43.03553 | 35865 ft | 386 kts | 258° |
| 2026-05-04 15:45 | 53.78156 | -43.12552 | 35868 ft | 386 kts | 258° |
| 2026-05-04 15:46 | 53.77404 | -43.21545 | 35871 ft | 387 kts | 258° |
| 2026-05-04 15:46 | 53.76642 | -43.30558 | 35874 ft | 388 kts | 258° |
| 2026-05-04 15:47 | 53.75874 | -43.39577 | 35877 ft | 388 kts | 258° |
| 2026-05-04 15:47 | 53.75098 | -43.48598 | 35880 ft | 388 kts | 258° |
| 2026-05-04 15:48 | 53.74316 | -43.57614 | 35883 ft | 389 kts | 258° |
| 2026-05-04 15:48 | 53.73124 | -43.71189 | 35888 ft | 390 kts | 258° |
| 2026-05-04 15:49 | 53.72321 | -43.80241 | 35891 ft | 390 kts | 258° |
| 2026-05-04 15:49 | 53.71511 | -43.89285 | 35894 ft | 390 kts | 258° |
| 2026-05-04 15:50 | 53.70694 | -43.98330 | 35897 ft | 390 kts | 258° |
| 2026-05-04 15:50 | 53.69876 | -44.07308 | 35900 ft | 390 kts | 258° |
| 2026-05-04 15:51 | 53.69046 | -44.16346 | 35904 ft | 390 kts | 258° |
| 2026-05-04 15:51 | 53.68208 | -44.25381 | 35907 ft | 390 kts | 258° |
| 2026-05-04 15:52 | 53.67365 | -44.34405 | 35910 ft | 390 kts | 257° |
| 2026-05-04 15:52 | 53.66515 | -44.43425 | 35913 ft | 389 kts | 257° |
| 2026-05-04 15:53 | 53.65657 | -44.52444 | 35916 ft | 389 kts | 257° |
| 2026-05-04 15:53 | 53.64795 | -44.61447 | 35920 ft | 389 kts | 257° |
| 2026-05-04 15:54 | 53.63925 | -44.70449 | 35923 ft | 389 kts | 257° |
| 2026-05-04 15:54 | 53.63047 | -44.79460 | 35926 ft | 390 kts | 257° |
| 2026-05-04 15:55 | 53.62162 | -44.88472 | 35930 ft | 390 kts | 257° |
| 2026-05-04 15:55 | 53.61271 | -44.97472 | 35933 ft | 390 kts | 257° |
| 2026-05-04 15:56 | 53.60377 | -45.06425 | 35937 ft | 391 kts | 257° |
| 2026-05-04 15:56 | 53.59470 | -45.15447 | 35940 ft | 391 kts | 257° |
| 2026-05-04 15:57 | 53.58555 | -45.24474 | 35944 ft | 391 kts | 257° |
| 2026-05-04 15:57 | 53.57632 | -45.33499 | 35947 ft | 392 kts | 257° |
| 2026-05-04 15:58 | 53.56700 | -45.42550 | 35951 ft | 393 kts | 257° |
| 2026-05-04 15:58 | 53.55760 | -45.51611 | 36036 ft | 393 kts | 257° |
| 2026-05-04 15:59 | 53.54810 | -45.60693 | 36168 ft | 396 kts | 257° |
| 2026-05-04 15:59 | 53.53848 | -45.69826 | 36289 ft | 398 kts | 257° |
| 2026-05-04 16:00 | 53.52873 | -45.78999 | 36306 ft | 399 kts | 257° |
| 2026-05-04 16:00 | 53.51893 | -45.88162 | 36309 ft | 398 kts | 257° |
| 2026-05-04 16:01 | 53.50905 | -45.97327 | 36312 ft | 399 kts | 257° |
| 2026-05-04 16:01 | 53.49909 | -46.06495 | 36315 ft | 399 kts | 257° |
| 2026-05-04 16:02 | 53.48905 | -46.15659 | 36318 ft | 399 kts | 256° |
| 2026-05-04 16:03 | 53.47399 | -46.29299 | 36323 ft | 398 kts | 256° |
| 2026-05-04 16:03 | 53.46381 | -46.38430 | 36326 ft | 398 kts | 256° |
| 2026-05-04 16:04 | 53.45358 | -46.47535 | 36328 ft | 397 kts | 256° |
| 2026-05-04 16:04 | 53.43814 | -46.61159 | 36333 ft | 396 kts | 256° |
| 2026-05-04 16:05 | 53.42777 | -46.70230 | 36336 ft | 395 kts | 256° |
| 2026-05-04 16:06 | 53.41213 | -46.83789 | 36341 ft | 395 kts | 256° |
| 2026-05-04 16:07 | 53.39104 | -47.01849 | 36347 ft | 395 kts | 256° |
| 2026-05-04 16:08 | 53.36964 | -47.19918 | 36353 ft | 396 kts | 256° |
| 2026-05-04 16:09 | 53.34247 | -47.42517 | 36360 ft | 397 kts | 256° |
| 2026-05-04 16:10 | 53.32034 | -47.60641 | 36366 ft | 398 kts | 256° |
| 2026-05-04 16:11 | 53.29796 | -47.78732 | 36373 ft | 399 kts | 255° |
| 2026-05-04 16:12 | 53.26376 | -48.05925 | 36382 ft | 399 kts | 255° |
| 2026-05-04 16:13 | 53.24061 | -48.24033 | 36388 ft | 398 kts | 255° |
| 2026-05-04 16:14 | 53.21725 | -48.42071 | 36394 ft | 397 kts | 255° |
| 2026-05-04 16:16 | 53.18776 | -48.64526 | 36401 ft | 396 kts | 255° |
| 2026-05-04 16:17 | 53.15793 | -48.86884 | 36409 ft | 395 kts | 255° |
| 2026-05-04 16:18 | 53.13381 | -49.04717 | 36414 ft | 394 kts | 255° |
| 2026-05-04 16:19 | 53.10346 | -49.26862 | 36421 ft | 394 kts | 255° |
| 2026-05-04 16:20 | 53.07262 | -49.49084 | 36428 ft | 395 kts | 255° |
| 2026-05-04 16:22 | 53.04169 | -49.71282 | 36458 ft | 393 kts | 254° |
| 2026-05-04 16:23 | 53.00321 | -49.97776 | 36491 ft | 392 kts | 253° |
| 2026-05-04 16:25 | 52.94492 | -50.23062 | 36499 ft | 392 kts | 246° |
| 2026-05-04 16:26 | 52.87213 | -50.52281 | 36508 ft | 392 kts | 247° |
| 2026-05-04 16:28 | 52.82174 | -50.73233 | 36513 ft | 393 kts | 247° |
| 2026-05-04 16:29 | 52.74925 | -51.02483 | 36521 ft | 393 kts | 246° |
| 2026-05-04 16:31 | 52.69719 | -51.23193 | 36527 ft | 394 kts | 246° |
| 2026-05-04 16:32 | 52.63385 | -51.48126 | 36533 ft | 394 kts | 246° |
| 2026-05-04 16:33 | 52.59136 | -51.64700 | 36537 ft | 393 kts | 246° |
| 2026-05-04 16:34 | 52.55935 | -51.77103 | 36539 ft | 393 kts | 246° |
| 2026-05-04 16:35 | 52.49881 | -52.00377 | 36544 ft | 391 kts | 246° |
| 2026-05-04 16:36 | 52.46650 | -52.12701 | 36547 ft | 393 kts | 245° |
| 2026-05-04 16:37 | 52.43398 | -52.25040 | 36549 ft | 393 kts | 245° |
| 2026-05-04 16:38 | 52.39040 | -52.41471 | 36553 ft | 394 kts | 245° |
| 2026-05-04 16:39 | 52.33544 | -52.62023 | 36556 ft | 396 kts | 245° |
| 2026-05-04 16:40 | 52.29096 | -52.78521 | 36575 ft | 397 kts | 245° |
| 2026-05-04 16:41 | 52.23478 | -52.99194 | 36578 ft | 400 kts | 245° |
| 2026-05-04 16:43 | 52.17813 | -53.19856 | 36580 ft | 401 kts | 245° |
| 2026-05-04 16:43 | 52.14379 | -53.32289 | 36581 ft | 401 kts | 245° |
| 2026-05-04 16:45 | 52.07463 | -53.57134 | 36583 ft | 402 kts | 244° |
| 2026-05-04 16:46 | 52.01656 | -53.77793 | 36585 ft | 402 kts | 244° |
| 2026-05-04 16:47 | 51.96989 | -53.94267 | 36587 ft | 402 kts | 244° |
| 2026-05-04 16:48 | 51.92330 | -54.10736 | 36588 ft | 402 kts | 245° |
| 2026-05-04 16:49 | 51.87641 | -54.27090 | 36589 ft | 401 kts | 244° |
| 2026-05-04 16:50 | 51.82890 | -54.43395 | 36590 ft | 400 kts | 244° |
| 2026-05-04 16:51 | 51.79263 | -54.55531 | 36585 ft | 399 kts | 241° |
| 2026-05-04 16:51 | 51.76436 | -54.63271 | 36896 ft | 401 kts | 238° |
| 2026-05-04 16:52 | 51.73436 | -54.70868 | 37293 ft | 402 kts | 238° |
| 2026-05-04 16:52 | 51.71934 | -54.74679 | 37461 ft | 403 kts | 238° |
| 2026-05-04 16:53 | 51.68957 | -54.82298 | 37969 ft | 400 kts | 238° |
| 2026-05-04 16:53 | 51.64558 | -54.93620 | 38625 ft | 394 kts | 238° |
| 2026-05-04 16:54 | 51.63108 | -54.97352 | 38595 ft | 392 kts | 238° |
| 2026-05-04 16:55 | 51.54636 | -55.19596 | 38595 ft | 389 kts | 239° |
| 2026-05-04 16:56 | 51.47464 | -55.38121 | 38596 ft | 391 kts | 238° |
| 2026-05-04 16:57 | 51.43114 | -55.49279 | 38595 ft | 399 kts | 238° |
| 2026-05-04 16:58 | 51.37226 | -55.64291 | 38599 ft | 394 kts | 238° |
| 2026-05-04 17:00 | 51.28476 | -55.86399 | 38599 ft | 393 kts | 238° |
| 2026-05-04 17:01 | 51.21141 | -56.04803 | 38599 ft | 393 kts | 238° |
| 2026-05-04 17:02 | 51.15244 | -56.19506 | 38600 ft | 395 kts | 238° |
| 2026-05-04 17:03 | 51.10794 | -56.30545 | 38600 ft | 394 kts | 237° |
| 2026-05-04 17:03 | 51.06345 | -56.41534 | 38600 ft | 394 kts | 237° |
| 2026-05-04 17:04 | 51.00405 | -56.56142 | 38600 ft | 394 kts | 237° |
| 2026-05-04 17:05 | 50.94448 | -56.70703 | 38602 ft | 393 kts | 237° |
| 2026-05-04 17:06 | 50.89971 | -56.81600 | 38598 ft | 394 kts | 237° |
| 2026-05-04 17:07 | 50.85975 | -56.91275 | 38601 ft | 395 kts | 237° |
| 2026-05-04 17:07 | 50.82451 | -56.99776 | 38596 ft | 395 kts | 237° |
| 2026-05-04 17:08 | 50.77927 | -57.10662 | 38599 ft | 395 kts | 237° |
| 2026-05-04 17:09 | 50.74903 | -57.17911 | 38598 ft | 395 kts | 237° |
| 2026-05-04 17:09 | 50.71873 | -57.25155 | 38598 ft | 396 kts | 237° |
| 2026-05-04 17:10 | 50.64293 | -57.43187 | 38602 ft | 396 kts | 236° |
| 2026-05-04 17:11 | 50.61242 | -57.50409 | 38603 ft | 396 kts | 236° |
| 2026-05-04 17:12 | 50.56660 | -57.61221 | 38604 ft | 396 kts | 236° |
| 2026-05-04 17:13 | 50.48993 | -57.79211 | 38604 ft | 396 kts | 236° |
| 2026-05-04 17:14 | 50.42835 | -57.93569 | 38605 ft | 396 kts | 236° |
| 2026-05-04 17:15 | 50.38205 | -58.04319 | 38605 ft | 397 kts | 236° |
| 2026-05-04 17:16 | 50.32001 | -58.18646 | 38606 ft | 397 kts | 236° |
| 2026-05-04 17:17 | 50.25779 | -58.32940 | 38607 ft | 398 kts | 236° |
| 2026-05-04 17:18 | 50.19519 | -58.47241 | 38606 ft | 399 kts | 236° |
| 2026-05-04 17:19 | 50.13221 | -58.61555 | 38607 ft | 401 kts | 236° |
| 2026-05-04 17:20 | 50.06878 | -58.75891 | 38608 ft | 403 kts | 235° |
| 2026-05-04 17:20 | 50.02108 | -58.86620 | 38609 ft | 404 kts | 235° |
| 2026-05-04 17:21 | 49.95709 | -59.00946 | 38610 ft | 400 kts | 235° |
| 2026-05-04 17:22 | 49.93070 | -59.06831 | 38610 ft | 399 kts | 235° |
| 2026-05-04 17:23 | 49.86684 | -59.21020 | 38612 ft | 403 kts | 235° |
| 2026-05-04 17:24 | 49.81854 | -59.31702 | 38613 ft | 404 kts | 234° |
| 2026-05-04 17:25 | 49.75372 | -59.45968 | 38614 ft | 406 kts | 234° |
| 2026-05-04 17:26 | 49.68862 | -59.60221 | 38615 ft | 408 kts | 234° |
| 2026-05-04 17:27 | 49.60646 | -59.78100 | 38618 ft | 409 kts | 234° |
| 2026-05-04 17:28 | 49.54045 | -59.92376 | 38619 ft | 409 kts | 234° |
| 2026-05-04 17:29 | 49.44083 | -60.13779 | 38621 ft | 412 kts | 234° |
| 2026-05-04 17:31 | 49.35731 | -60.31593 | 38622 ft | 411 kts | 234° |
| 2026-05-04 17:32 | 49.27360 | -60.49327 | 38623 ft | 410 kts | 234° |
| 2026-05-04 17:33 | 49.20653 | -60.63453 | 38619 ft | 410 kts | 234° |
| 2026-05-04 17:34 | 49.13919 | -60.77559 | 38618 ft | 411 kts | 233° |
| 2026-05-04 17:35 | 49.05493 | -60.95107 | 38616 ft | 411 kts | 233° |
| 2026-05-04 17:36 | 49.02083 | -61.02176 | 38616 ft | 411 kts | 233° |
| 2026-05-04 17:36 | 48.98710 | -61.09150 | 38615 ft | 412 kts | 233° |
| 2026-05-04 17:37 | 48.95310 | -61.16161 | 38614 ft | 412 kts | 233° |
| 2026-05-04 17:37 | 48.91901 | -61.23173 | 38613 ft | 412 kts | 233° |
| 2026-05-04 17:38 | 48.88490 | -61.30170 | 38611 ft | 412 kts | 233° |
| 2026-05-04 17:38 | 48.85075 | -61.37158 | 38611 ft | 412 kts | 233° |
| 2026-05-04 17:39 | 48.79944 | -61.47624 | 38608 ft | 412 kts | 233° |
| 2026-05-04 17:39 | 48.76513 | -61.54599 | 38607 ft | 412 kts | 233° |
| 2026-05-04 17:40 | 48.73082 | -61.61555 | 38606 ft | 412 kts | 233° |
| 2026-05-04 17:40 | 48.69642 | -61.68512 | 38605 ft | 412 kts | 233° |
| 2026-05-04 17:41 | 48.66204 | -61.75448 | 38602 ft | 412 kts | 233° |
| 2026-05-04 17:41 | 48.62763 | -61.82370 | 38598 ft | 411 kts | 232° |
| 2026-05-04 17:42 | 48.59325 | -61.89271 | 38600 ft | 411 kts | 232° |
| 2026-05-04 17:42 | 48.55877 | -61.96172 | 38599 ft | 412 kts | 232° |
| 2026-05-04 17:43 | 48.52428 | -62.03059 | 38597 ft | 411 kts | 232° |
| 2026-05-04 17:43 | 48.48989 | -62.09907 | 38596 ft | 413 kts | 232° |
| 2026-05-04 17:44 | 48.45513 | -62.16811 | 38595 ft | 413 kts | 232° |
| 2026-05-04 17:44 | 48.42037 | -62.23700 | 38581 ft | 413 kts | 232° |
| 2026-05-04 17:45 | 48.38565 | -62.30562 | 38579 ft | 412 kts | 232° |
| 2026-05-04 17:45 | 48.35081 | -62.37430 | 38578 ft | 413 kts | 232° |
| 2026-05-04 17:46 | 48.31592 | -62.44290 | 38577 ft | 414 kts | 232° |
| 2026-05-04 17:46 | 48.28094 | -62.51151 | 38576 ft | 414 kts | 232° |
| 2026-05-04 17:47 | 48.24594 | -62.57999 | 38575 ft | 414 kts | 232° |
| 2026-05-04 17:47 | 48.21078 | -62.64860 | 38575 ft | 415 kts | 232° |
| 2026-05-04 17:48 | 48.17554 | -62.71720 | 38573 ft | 416 kts | 232° |
| 2026-05-04 17:48 | 48.14021 | -62.78579 | 38573 ft | 417 kts | 232° |
| 2026-05-04 17:49 | 48.10496 | -62.85407 | 38572 ft | 418 kts | 232° |
| 2026-05-04 17:49 | 48.06935 | -62.92286 | 38570 ft | 418 kts | 232° |
| 2026-05-04 17:50 | 48.03364 | -62.99166 | 38570 ft | 419 kts | 232° |
| 2026-05-04 17:50 | 47.99784 | -63.06048 | 38569 ft | 420 kts | 232° |
| 2026-05-04 17:51 | 47.96205 | -63.12908 | 38568 ft | 416 kts | 231° |
| 2026-05-04 17:51 | 47.92655 | -63.19697 | 38565 ft | 414 kts | 231° |
| 2026-05-04 17:52 | 47.89103 | -63.26473 | 38564 ft | 416 kts | 231° |
| 2026-05-04 17:52 | 47.85533 | -63.33267 | 38559 ft | 417 kts | 231° |
| 2026-05-04 17:53 | 47.81946 | -63.40075 | 38544 ft | 418 kts | 231° |
| 2026-05-04 17:53 | 47.78354 | -63.46875 | 38543 ft | 418 kts | 231° |
| 2026-05-04 17:54 | 47.74751 | -63.53679 | 38542 ft | 419 kts | 231° |
| 2026-05-04 17:54 | 47.71140 | -63.60482 | 38541 ft | 419 kts | 231° |
| 2026-05-04 17:55 | 47.67520 | -63.67284 | 38539 ft | 420 kts | 231° |
| 2026-05-04 17:55 | 47.63890 | -63.74090 | 38537 ft | 421 kts | 231° |
| 2026-05-04 17:56 | 47.60258 | -63.80880 | 38536 ft | 420 kts | 231° |
| 2026-05-04 17:56 | 47.56620 | -63.87666 | 38535 ft | 420 kts | 231° |
| 2026-05-04 17:57 | 47.52978 | -63.94442 | 38534 ft | 420 kts | 231° |
| 2026-05-04 17:57 | 47.49333 | -64.01206 | 38532 ft | 421 kts | 231° |
| 2026-05-04 17:58 | 47.45704 | -64.07925 | 38532 ft | 422 kts | 231° |
| 2026-05-04 17:58 | 47.42036 | -64.14700 | 38533 ft | 422 kts | 231° |
| 2026-05-04 17:59 | 47.38367 | -64.21459 | 38533 ft | 422 kts | 231° |
| 2026-05-04 18:00 | 47.32855 | -64.31580 | 38530 ft | 422 kts | 231° |
| 2026-05-04 18:00 | 47.29179 | -64.38311 | 38529 ft | 422 kts | 231° |
| 2026-05-04 18:01 | 47.25497 | -64.45035 | 38529 ft | 422 kts | 231° |
| 2026-05-04 18:01 | 47.21809 | -64.51754 | 38526 ft | 422 kts | 231° |
| 2026-05-04 18:02 | 47.16276 | -64.61805 | 38525 ft | 422 kts | 231° |
| 2026-05-04 18:02 | 47.12579 | -64.68500 | 38523 ft | 422 kts | 231° |
| 2026-05-04 18:03 | 47.08878 | -64.75185 | 38517 ft | 422 kts | 230° |
| 2026-05-04 18:03 | 47.05175 | -64.81856 | 38517 ft | 422 kts | 230° |
| 2026-05-04 18:04 | 47.01466 | -64.88524 | 38516 ft | 422 kts | 230° |
| 2026-05-04 18:05 | 46.95886 | -64.98523 | 38515 ft | 423 kts | 230° |
| 2026-05-04 18:05 | 46.92155 | -65.05190 | 38514 ft | 423 kts | 230° |
| 2026-05-04 18:06 | 46.86549 | -65.15175 | 38512 ft | 424 kts | 230° |
| 2026-05-04 18:06 | 46.82797 | -65.21837 | 38511 ft | 424 kts | 230° |
| 2026-05-04 18:07 | 46.79044 | -65.28487 | 38510 ft | 424 kts | 230° |
| 2026-05-04 18:07 | 46.75307 | -65.35090 | 38509 ft | 425 kts | 230° |
| 2026-05-04 18:08 | 46.71511 | -65.41784 | 38508 ft | 426 kts | 230° |
| 2026-05-04 18:08 | 46.67734 | -65.48426 | 38506 ft | 426 kts | 230° |
| 2026-05-04 18:09 | 46.60195 | -65.61637 | 38503 ft | 426 kts | 230° |
| 2026-05-04 18:10 | 46.57021 | -65.67180 | 38502 ft | 426 kts | 230° |
| 2026-05-04 18:10 | 46.53224 | -65.73797 | 38501 ft | 427 kts | 230° |
| 2026-05-04 18:11 | 46.49416 | -65.80417 | 38490 ft | 427 kts | 230° |
| 2026-05-04 18:11 | 46.45634 | -65.86976 | 38488 ft | 427 kts | 230° |
| 2026-05-04 18:12 | 46.41819 | -65.93577 | 38480 ft | 427 kts | 230° |
| 2026-05-04 18:12 | 46.38001 | -66.00166 | 38479 ft | 427 kts | 229° |
| 2026-05-04 18:13 | 46.34176 | -66.06751 | 38478 ft | 428 kts | 229° |
| 2026-05-04 18:14 | 46.28419 | -66.16634 | 38477 ft | 428 kts | 229° |
| 2026-05-04 18:14 | 46.24577 | -66.23211 | 38476 ft | 428 kts | 229° |
| 2026-05-04 18:15 | 46.16880 | -66.36339 | 38484 ft | 428 kts | 229° |
| 2026-05-04 18:16 | 46.13018 | -66.42902 | 38486 ft | 429 kts | 229° |
| 2026-05-04 18:16 | 46.09146 | -66.49467 | 38485 ft | 430 kts | 229° |
| 2026-05-04 18:17 | 46.03325 | -66.59307 | 38487 ft | 431 kts | 229° |
| 2026-05-04 18:18 | 45.97480 | -66.69152 | 38487 ft | 431 kts | 229° |
| 2026-05-04 18:18 | 45.93600 | -66.75668 | 38486 ft | 428 kts | 229° |
| 2026-05-04 18:19 | 45.87778 | -66.85417 | 38483 ft | 429 kts | 229° |
| 2026-05-04 18:19 | 45.83877 | -66.91931 | 38479 ft | 431 kts | 229° |
| 2026-05-04 18:20 | 45.79990 | -66.98405 | 38474 ft | 432 kts | 229° |
| 2026-05-04 18:20 | 45.76067 | -67.04924 | 38468 ft | 432 kts | 229° |
| 2026-05-04 18:21 | 45.72133 | -67.11447 | 38463 ft | 433 kts | 229° |
| 2026-05-04 18:21 | 45.68188 | -67.17973 | 38459 ft | 434 kts | 229° |
| 2026-05-04 18:22 | 45.64231 | -67.24502 | 38459 ft | 435 kts | 229° |
| 2026-05-04 18:22 | 45.60265 | -67.31033 | 38457 ft | 436 kts | 229° |
| 2026-05-04 18:23 | 45.56286 | -67.37568 | 38455 ft | 436 kts | 229° |
| 2026-05-04 18:23 | 45.52322 | -67.44131 | 38453 ft | 437 kts | 229° |
| 2026-05-04 18:24 | 45.48330 | -67.50666 | 38453 ft | 437 kts | 229° |
| 2026-05-04 18:24 | 45.44321 | -67.57180 | 38452 ft | 438 kts | 229° |
| 2026-05-04 18:25 | 45.40302 | -67.63696 | 38451 ft | 438 kts | 229° |
| 2026-05-04 18:25 | 45.36279 | -67.70209 | 38451 ft | 438 kts | 229° |
| 2026-05-04 18:26 | 45.32069 | -67.76465 | 38452 ft | 438 kts | 223° |
| 2026-05-04 18:26 | 45.27438 | -67.82108 | 38440 ft | 438 kts | 220° |
| 2026-05-04 18:27 | 45.22694 | -67.87540 | 38433 ft | 438 kts | 220° |
| 2026-05-04 18:27 | 45.18023 | -67.92976 | 38434 ft | 438 kts | 220° |
| 2026-05-04 18:28 | 45.13339 | -67.98481 | 38436 ft | 437 kts | 221° |
| 2026-05-04 18:28 | 45.08660 | -68.03992 | 38437 ft | 440 kts | 221° |
| 2026-05-04 18:29 | 45.03962 | -68.09594 | 38439 ft | 443 kts | 221° |
| 2026-05-04 18:29 | 44.99257 | -68.15195 | 38442 ft | 442 kts | 221° |
| 2026-05-04 18:30 | 44.92205 | -68.23522 | 38446 ft | 440 kts | 221° |
| 2026-05-04 18:31 | 44.87506 | -68.29047 | 38449 ft | 440 kts | 221° |
| 2026-05-04 18:31 | 44.82805 | -68.34560 | 38451 ft | 440 kts | 221° |
| 2026-05-04 18:32 | 44.78104 | -68.40059 | 38442 ft | 439 kts | 221° |
| 2026-05-04 18:32 | 44.73406 | -68.45543 | 38440 ft | 439 kts | 221° |
| 2026-05-04 18:33 | 44.68704 | -68.51019 | 38441 ft | 439 kts | 221° |
| 2026-05-04 18:33 | 44.63996 | -68.56490 | 38442 ft | 439 kts | 220° |
| 2026-05-04 18:34 | 44.59286 | -68.61952 | 38443 ft | 439 kts | 220° |
| 2026-05-04 18:34 | 44.54574 | -68.67405 | 38443 ft | 439 kts | 220° |
| 2026-05-04 18:35 | 44.49857 | -68.72850 | 38444 ft | 440 kts | 220° |
| 2026-05-04 18:35 | 44.45133 | -68.78293 | 38444 ft | 440 kts | 220° |
| 2026-05-04 18:36 | 44.40395 | -68.83740 | 38431 ft | 441 kts | 220° |
| 2026-05-04 18:36 | 44.35644 | -68.89190 | 38414 ft | 442 kts | 220° |
| 2026-05-04 18:37 | 44.30890 | -68.94631 | 38417 ft | 442 kts | 220° |
| 2026-05-04 18:37 | 44.26124 | -69.00075 | 38416 ft | 444 kts | 220° |
| 2026-05-04 18:38 | 44.21372 | -69.05491 | 38416 ft | 445 kts | 220° |
| 2026-05-04 18:38 | 44.16577 | -69.10944 | 38417 ft | 445 kts | 220° |
| 2026-05-04 18:39 | 44.11768 | -69.16401 | 38419 ft | 446 kts | 220° |
| 2026-05-04 18:39 | 44.06950 | -69.21857 | 38422 ft | 447 kts | 220° |
| 2026-05-04 18:40 | 44.02119 | -69.27316 | 38431 ft | 448 kts | 220° |
| 2026-05-04 18:40 | 43.97288 | -69.32771 | 38432 ft | 447 kts | 220° |
| 2026-05-04 18:41 | 43.92483 | -69.38222 | 38437 ft | 445 kts | 220° |
| 2026-05-04 18:41 | 43.87658 | -69.43630 | 38438 ft | 447 kts | 220° |
| 2026-05-04 18:42 | 43.82866 | -69.48981 | 38312 ft | 433 kts | 220° |
| 2026-05-04 18:42 | 43.80542 | -69.51573 | 37880 ft | 426 kts | 220° |
| 2026-05-04 18:42 | 43.78234 | -69.54145 | 37044 ft | 428 kts | 220° |
| 2026-05-04 18:42 | 43.75893 | -69.56750 | 35982 ft | 435 kts | 220° |
| 2026-05-04 18:43 | 43.73418 | -69.59139 | 35400 ft | 431 kts | 213° |
| 2026-05-04 18:43 | 43.70763 | -69.61029 | 34820 ft | 429 kts | 207° |
| 2026-05-04 18:43 | 43.67990 | -69.62553 | 34184 ft | 428 kts | 204° |
| 2026-05-04 18:43 | 43.65183 | -69.63868 | 33645 ft | 424 kts | 202° |
| 2026-05-04 18:44 | 43.62382 | -69.65066 | 33128 ft | 419 kts | 201° |
| 2026-05-04 18:44 | 43.60542 | -69.65846 | 32796 ft | 416 kts | 201° |
| 2026-05-04 18:44 | 43.57239 | -69.67274 | 32208 ft | 409 kts | 202° |
| 2026-05-04 18:44 | 43.54544 | -69.68461 | 31732 ft | 404 kts | 202° |
| 2026-05-04 18:45 | 43.51891 | -69.69641 | 31265 ft | 399 kts | 202° |
| 2026-05-04 18:45 | 43.49268 | -69.70813 | 30817 ft | 393 kts | 202° |
| 2026-05-04 18:45 | 43.46688 | -69.71967 | 30392 ft | 387 kts | 202° |
| 2026-05-04 18:45 | 43.44138 | -69.73109 | 29914 ft | 383 kts | 202° |
| 2026-05-04 18:46 | 43.41619 | -69.74237 | 29434 ft | 379 kts | 202° |
| 2026-05-04 18:46 | 43.39123 | -69.75361 | 28932 ft | 376 kts | 203° |
| 2026-05-04 18:46 | 43.36654 | -69.76478 | 28438 ft | 372 kts | 202° |
| 2026-05-04 18:46 | 43.34199 | -69.77585 | 27944 ft | 369 kts | 203° |
| 2026-05-04 18:47 | 43.31799 | -69.78671 | 27461 ft | 366 kts | 203° |
| 2026-05-04 18:47 | 43.29391 | -69.79759 | 26980 ft | 363 kts | 203° |
| 2026-05-04 18:47 | 43.26998 | -69.80832 | 26504 ft | 360 kts | 202° |
| 2026-05-04 18:47 | 43.24623 | -69.81893 | 26025 ft | 358 kts | 202° |
| 2026-05-04 18:48 | 43.22265 | -69.82943 | 25551 ft | 355 kts | 202° |
| 2026-05-04 18:48 | 43.19924 | -69.83984 | 25081 ft | 352 kts | 202° |
| 2026-05-04 18:48 | 43.17598 | -69.85017 | 24608 ft | 350 kts | 202° |
| 2026-05-04 18:48 | 43.15289 | -69.86042 | 24138 ft | 348 kts | 202° |
| 2026-05-04 18:49 | 43.12992 | -69.87061 | 23671 ft | 346 kts | 202° |
| 2026-05-04 18:49 | 43.10706 | -69.88074 | 23202 ft | 344 kts | 202° |
| 2026-05-04 18:49 | 43.08433 | -69.89082 | 22736 ft | 343 kts | 202° |
| 2026-05-04 18:49 | 43.06172 | -69.90083 | 22273 ft | 341 kts | 202° |
| 2026-05-04 18:50 | 43.03921 | -69.91079 | 21815 ft | 339 kts | 202° |
| 2026-05-04 18:50 | 43.01678 | -69.92075 | 21357 ft | 338 kts | 202° |
| 2026-05-04 18:50 | 42.99445 | -69.93071 | 20893 ft | 337 kts | 202° |
| 2026-05-04 18:50 | 42.97218 | -69.94059 | 20427 ft | 336 kts | 202° |
| 2026-05-04 18:51 | 42.94998 | -69.95040 | 19966 ft | 335 kts | 202° |
| 2026-05-04 18:51 | 42.92782 | -69.96018 | 19505 ft | 334 kts | 202° |
| 2026-05-04 18:51 | 42.90569 | -69.96992 | 19046 ft | 334 kts | 203° |
| 2026-05-04 18:51 | 42.88362 | -69.97963 | 18587 ft | 333 kts | 203° |
| 2026-05-04 18:52 | 42.86191 | -69.98917 | 18115 ft | 317 kts | 203° |
| 2026-05-04 18:52 | 42.84138 | -69.99820 | 17527 ft | 304 kts | 203° |
| 2026-05-04 18:52 | 42.82152 | -70.00692 | 16927 ft | 296 kts | 203° |
| 2026-05-04 18:52 | 42.80210 | -70.01545 | 16325 ft | 290 kts | 203° |
| 2026-05-04 18:53 | 42.78305 | -70.02380 | 15725 ft | 286 kts | 204° |
| 2026-05-04 18:53 | 42.76441 | -70.03199 | 15132 ft | 283 kts | 204° |
| 2026-05-04 18:53 | 42.74557 | -70.04057 | 14527 ft | 282 kts | 205° |
| 2026-05-04 18:53 | 42.72758 | -70.04954 | 13933 ft | 277 kts | 206° |
| 2026-05-04 18:54 | 42.70972 | -70.05865 | 13331 ft | 271 kts | 206° |
| 2026-05-04 18:54 | 42.69216 | -70.06744 | 12730 ft | 267 kts | 206° |
| 2026-05-04 18:54 | 42.67479 | -70.07603 | 12128 ft | 264 kts | 206° |
| 2026-05-04 18:54 | 42.65866 | -70.08693 | 11532 ft | 256 kts | 219° |
| 2026-05-04 18:55 | 42.64647 | -70.10407 | 11014 ft | 254 kts | 234° |
| 2026-05-04 18:55 | 42.62917 | -70.14715 | 10068 ft | 262 kts | 246° |
| 2026-05-04 18:55 | 42.62190 | -70.16985 | 9592 ft | 261 kts | 247° |
| 2026-05-04 18:56 | 42.61453 | -70.19229 | 9140 ft | 259 kts | 246° |
| 2026-05-04 18:56 | 42.60757 | -70.21475 | 8717 ft | 256 kts | 250° |
| 2026-05-04 18:56 | 42.60341 | -70.23805 | 8459 ft | 254 kts | 258° |
| 2026-05-04 18:56 | 42.60090 | -70.26167 | 8247 ft | 254 kts | 262° |
| 2026-05-04 18:57 | 42.59922 | -70.28571 | 8047 ft | 258 kts | 264° |
| 2026-05-04 18:57 | 42.59802 | -70.31010 | 7848 ft | 260 kts | 265° |
| 2026-05-04 18:57 | 42.59695 | -70.33458 | 7648 ft | 260 kts | 265° |
| 2026-05-04 18:57 | 42.59584 | -70.35903 | 7450 ft | 259 kts | 265° |
| 2026-05-04 18:58 | 42.59470 | -70.38341 | 7273 ft | 258 kts | 265° |
| 2026-05-04 18:58 | 42.59355 | -70.40769 | 7097 ft | 257 kts | 265° |
| 2026-05-04 18:58 | 42.59238 | -70.43194 | 7004 ft | 258 kts | 264° |
| 2026-05-04 18:58 | 42.59161 | -70.44799 | 6985 ft | 257 kts | 264° |
| 2026-05-04 18:59 | 42.59043 | -70.47218 | 6984 ft | 256 kts | 264° |
| 2026-05-04 18:59 | 42.58927 | -70.49626 | 6984 ft | 256 kts | 264° |
| 2026-05-04 18:59 | 42.58810 | -70.52039 | 6985 ft | 257 kts | 264° |
| 2026-05-04 18:59 | 42.58690 | -70.54456 | 6984 ft | 257 kts | 264° |
| 2026-05-04 19:00 | 42.58451 | -70.56851 | 6984 ft | 253 kts | 258° |
| 2026-05-04 19:00 | 42.58065 | -70.59129 | 6922 ft | 243 kts | 254° |
| 2026-05-04 19:00 | 42.57600 | -70.61303 | 6816 ft | 237 kts | 252° |
| 2026-05-04 19:00 | 42.57113 | -70.63427 | 6689 ft | 234 kts | 251° |
| 2026-05-04 19:01 | 42.56642 | -70.65523 | 6496 ft | 228 kts | 252° |
| 2026-05-04 19:01 | 42.56197 | -70.67565 | 6218 ft | 223 kts | 253° |
| 2026-05-04 19:01 | 42.56108 | -70.69636 | 5930 ft | 223 kts | 274° |
| 2026-05-04 19:01 | 42.56626 | -70.71598 | 5704 ft | 221 kts | 291° |
| 2026-05-04 19:02 | 42.57474 | -70.73321 | 5440 ft | 219 kts | 303° |
| 2026-05-04 19:02 | 42.58441 | -70.74914 | 5171 ft | 219 kts | 307° |
| 2026-05-04 19:02 | 42.59457 | -70.76464 | 4891 ft | 221 kts | 311° |
| 2026-05-04 19:02 | 42.60791 | -70.77539 | 4618 ft | 233 kts | 338° |
| 2026-05-04 19:03 | 42.62391 | -70.77609 | 4403 ft | 231 kts | 6° |
| 2026-05-04 19:03 | 42.63905 | -70.76938 | 4157 ft | 228 kts | 22° |
| 2026-05-04 19:03 | 42.65368 | -70.76144 | 4014 ft | 226 kts | 18° |
| 2026-05-04 19:03 | 42.66905 | -70.76090 | 3888 ft | 217 kts | 349° |
| 2026-05-04 19:04 | 42.68114 | -70.77120 | 3971 ft | 202 kts | 313° |
| 2026-05-04 19:04 | 42.68652 | -70.78823 | 4007 ft | 196 kts | 278° |
| 2026-05-04 19:04 | 42.68371 | -70.80574 | 4001 ft | 190 kts | 243° |
| 2026-05-04 19:04 | 42.67549 | -70.81945 | 4015 ft | 186 kts | 225° |
| 2026-05-04 19:05 | 42.66652 | -70.83214 | 3995 ft | 186 kts | 223° |
| 2026-05-04 19:05 | 42.65736 | -70.84460 | 3984 ft | 186 kts | 223° |
| 2026-05-04 19:05 | 42.64825 | -70.85702 | 3983 ft | 185 kts | 223° |
| 2026-05-04 19:05 | 42.63873 | -70.86856 | 3977 ft | 183 kts | 215° |
| 2026-05-04 19:06 | 42.62750 | -70.87676 | 3990 ft | 183 kts | 205° |
| 2026-05-04 19:06 | 42.61568 | -70.88336 | 3983 ft | 184 kts | 200° |
| 2026-05-04 19:06 | 42.60368 | -70.88923 | 3988 ft | 183 kts | 199° |
| 2026-05-04 19:06 | 42.59164 | -70.89502 | 3984 ft | 183 kts | 199° |
| 2026-05-04 19:07 | 42.57960 | -70.90084 | 3982 ft | 184 kts | 199° |
| 2026-05-04 19:07 | 42.56766 | -70.90664 | 3977 ft | 179 kts | 199° |
| 2026-05-04 19:07 | 42.55612 | -70.91226 | 3766 ft | 175 kts | 199° |
| 2026-05-04 19:07 | 42.54474 | -70.91779 | 3530 ft | 172 kts | 199° |
| 2026-05-04 19:08 | 42.53370 | -70.92316 | 3311 ft | 164 kts | 198° |
| 2026-05-04 19:08 | 42.52340 | -70.92817 | 3093 ft | 150 kts | 198° |
| 2026-05-04 19:08 | 42.51396 | -70.93277 | 2885 ft | 141 kts | 198° |
| 2026-05-04 19:08 | 42.50475 | -70.93725 | 2728 ft | 140 kts | 198° |
| 2026-05-04 19:09 | 42.49559 | -70.94171 | 2539 ft | 140 kts | 198° |
| 2026-05-04 19:09 | 42.48651 | -70.94613 | 2360 ft | 139 kts | 198° |
| 2026-05-04 19:09 | 42.47739 | -70.95056 | 2166 ft | 140 kts | 199° |
| 2026-05-04 19:09 | 42.46820 | -70.95503 | 1975 ft | 140 kts | 199° |
| 2026-05-04 19:10 | 42.45899 | -70.95951 | 1783 ft | 141 kts | 198° |
| 2026-05-04 19:10 | 42.44971 | -70.96401 | 1594 ft | 141 kts | 198° |
| 2026-05-04 19:10 | 42.44046 | -70.96850 | 1402 ft | 142 kts | 198° |
| 2026-05-04 19:10 | 42.43109 | -70.97305 | 1214 ft | 144 kts | 197° |
| 2026-05-04 19:11 | 42.42160 | -70.97765 | 1024 ft | 145 kts | 197° |
| 2026-05-04 19:11 | 42.41209 | -70.98227 | 830 ft | 145 kts | 197° |
| 2026-05-04 19:11 | 42.40264 | -70.98685 | 635 ft | 144 kts | 197° |
| 2026-05-04 19:11 | 42.39319 | -70.99143 | 446 ft | 144 kts | 197° |
| 2026-05-04 19:12 | 42.38378 | -70.99600 | 256 ft | 144 kts | 197° |
| 2026-05-04 19:12 | 42.36560 | -71.00485 | 35 ft | 127 kts | 197° |
| 2026-05-04 19:12 | 42.35866 | -71.00817 | 33 ft | 82 kts | 198° |
| 2026-05-04 19:13 | 42.35587 | -71.00946 | 33 ft | 29 kts | 202° |
| 2026-05-04 19:13 | 42.35416 | -71.01034 | 33 ft | 25 kts | 204° |
| 2026-05-04 19:13 | 42.35389 | -71.01143 | 33 ft | 11 kts | 290° |
| 2026-05-04 19:13 | 42.35411 | -71.01219 | 33 ft | 8 kts | 290° |
| 2026-05-04 19:14 | 42.35432 | -71.01292 | 33 ft | 9 kts | 291° |
| 2026-05-04 19:14 | 42.35461 | -71.01353 | 33 ft | 7 kts | 334° |
| 2026-05-04 19:14 | 42.35551 | -71.01340 | 33 ft | 17 kts | 15° |
| 2026-05-04 19:14 | 42.35661 | -71.01309 | 33 ft | 16 kts | 15° |
| 2026-05-04 19:15 | 42.35762 | -71.01262 | 33 ft | 16 kts | 21° |
| 2026-05-04 19:15 | 42.35860 | -71.01211 | 33 ft | 15 kts | 20° |
| 2026-05-04 19:15 | 42.35961 | -71.01161 | 33 ft | 16 kts | 20° |
| 2026-05-04 19:15 | 42.36071 | -71.01108 | 33 ft | 18 kts | 20° |
| 2026-05-04 19:16 | 42.36191 | -71.01049 | 33 ft | 19 kts | 21° |
| 2026-05-04 19:16 | 42.36317 | -71.00990 | 33 ft | 20 kts | 18° |
| 2026-05-04 19:16 | 42.36446 | -71.00929 | 33 ft | 19 kts | 20° |
| 2026-05-04 19:16 | 42.36570 | -71.00866 | 33 ft | 18 kts | 20° |
| 2026-05-04 19:17 | 42.36680 | -71.00820 | 33 ft | 11 kts | 354° |
| 2026-05-04 19:17 | 42.36720 | -71.00852 | 33 ft | 0 kts | 319° |
| 2026-05-04 19:18 | 42.36723 | -71.00855 | 33 ft | 4 kts | 319° |
| 2026-05-04 19:18 | 42.36765 | -71.00907 | 33 ft | 6 kts | 314° |
| 2026-05-04 19:18 | 42.36803 | -71.00958 | 33 ft | 11 kts | 316° |
| 2026-05-04 19:18 | 42.36872 | -71.01047 | 33 ft | 17 kts | 316° |
| 2026-05-04 19:19 | 42.36965 | -71.01168 | 33 ft | 18 kts | 315° |
| 2026-05-04 19:19 | 42.37051 | -71.01290 | 33 ft | 17 kts | 314° |
| 2026-05-04 19:19 | 42.37135 | -71.01403 | 33 ft | 17 kts | 316° |
| 2026-05-04 19:19 | 42.37216 | -71.01507 | 33 ft | 16 kts | 316° |
| 2026-05-04 19:20 | 42.37292 | -71.01606 | 33 ft | 15 kts | 315° |
| 2026-05-04 19:20 | 42.37362 | -71.01701 | 33 ft | 14 kts | 315° |
| 2026-05-04 19:20 | 42.37387 | -71.01787 | 33 ft | 8 kts | 252° |
| 2026-05-04 19:20 | 42.37371 | -71.01829 | 33 ft | 2 kts | 234° |
| 2026-05-04 19:21 | 42.37346 | -71.01857 | 33 ft | 4 kts | 212° |
| 2026-05-04 19:21 | 42.37324 | -71.01872 | 33 ft | 3 kts | 206° |
| 2026-05-04 19:21 | 42.37301 | -71.01888 | 33 ft | 5 kts | 207° |
| 2026-05-04 19:21 | 42.37264 | -71.01915 | 33 ft | 9 kts | 208° |
| 2026-05-04 19:22 | 42.37205 | -71.01955 | 33 ft | 8 kts | 206° |
| 2026-05-04 19:22 | 42.37165 | -71.01985 | 33 ft | 5 kts | 211° |
| 2026-05-04 19:22 | 42.37148 | -71.02000 | 33 ft | 2 kts | 211° |
| 2026-05-04 19:22 | 42.37145 | -71.02002 | 33 ft | 0 kts | 211° |